createdAt,value
2022-11-13T00:01:09.231Z,9.00
2022-11-13T00:03:37.055Z,9.12
2022-11-13T00:06:05.615Z,9.18
2022-11-13T00:08:33.889Z,9.19
2022-11-13T00:11:05.321Z,9.19
2022-11-13T00:13:34.297Z,9.18
2022-11-13T00:16:03.878Z,9.17
2022-11-13T00:18:32.259Z,9.17
2022-11-13T00:21:05.578Z,9.14
2022-11-13T00:23:34.661Z,9.08
2022-11-13T00:26:07.515Z,9.05
2022-11-13T00:28:35.375Z,8.91
2022-11-13T00:31:05.304Z,8.97
2022-11-13T00:34:02.093Z,8.92
2022-11-13T00:36:26.105Z,8.96
2022-11-13T00:38:55.123Z,8.94
2022-11-13T00:41:25.122Z,8.93
2022-11-13T00:43:53.130Z,8.93
2022-11-13T00:46:21.196Z,8.90
2022-11-13T00:48:49.035Z,8.89
2022-11-13T00:51:16.928Z,8.52
2022-11-13T00:53:44.777Z,8.82
2022-11-13T00:56:12.655Z,8.83
2022-11-13T00:58:41.898Z,8.82
2022-11-13T01:01:12.707Z,8.84
2022-11-13T01:03:40.848Z,8.86
2022-11-13T01:06:13.662Z,8.87
2022-11-13T01:08:41.938Z,8.89
2022-11-13T01:11:10.999Z,8.89
2022-11-13T01:13:39.127Z,8.70
2022-11-13T01:16:10.363Z,8.92
2022-11-13T01:18:38.514Z,8.82
2022-11-13T01:21:08.154Z,8.96
2022-11-13T01:23:36.518Z,8.76
2022-11-13T01:26:10.731Z,8.98
2022-11-13T01:28:39.570Z,9.01
2022-11-13T01:31:10.336Z,8.90
2022-11-13T01:33:38.518Z,8.84
2022-11-13T01:36:08.785Z,8.98
2022-11-13T01:38:37.710Z,8.87
2022-11-13T01:41:06.757Z,8.77
2022-11-13T01:43:37.573Z,8.97
2022-11-13T01:46:20.275Z,9.01
2022-11-13T01:48:51.335Z,9.01
2022-11-13T01:51:27.199Z,9.01
2022-11-13T01:53:55.643Z,8.97
2022-11-13T01:56:23.954Z,8.92
2022-11-13T01:58:59.647Z,8.93
2022-11-13T02:01:30.094Z,8.87
2022-11-13T02:03:57.990Z,8.82
2022-11-13T02:06:26.835Z,8.87
2022-11-13T02:08:55.052Z,8.85
2022-11-13T02:11:23.168Z,8.84
2022-11-13T02:13:51.298Z,8.78
2022-11-13T02:16:20.419Z,8.72
2022-11-13T02:18:49.911Z,8.81
2022-11-13T02:21:29.036Z,8.80
2022-11-13T02:24:05.610Z,8.78
2022-11-13T02:26:35.216Z,8.55
2022-11-13T02:29:03.070Z,8.81
2022-11-13T02:31:30.966Z,8.79
2022-11-13T02:33:58.826Z,8.78
2022-11-13T02:36:27.738Z,8.81
2022-11-13T02:39:00.086Z,8.87
2022-11-13T02:41:27.938Z,8.89
2022-11-13T02:43:57.353Z,8.85
2022-11-13T02:46:25.183Z,8.93
2022-11-13T02:48:52.987Z,8.93
2022-11-13T02:51:20.794Z,8.92
2022-11-13T02:53:48.669Z,8.91
2022-11-13T02:56:16.475Z,8.89
2022-11-13T02:58:44.560Z,8.90
2022-11-13T03:01:13.932Z,8.90
2022-11-13T03:03:57.193Z,8.38
2022-11-13T03:06:25.573Z,8.93
2022-11-13T03:08:53.427Z,8.95
2022-11-13T03:11:21.303Z,9.00
2022-11-13T03:13:49.203Z,9.03
2022-11-13T03:16:18.690Z,9.02
2022-11-13T03:18:46.495Z,9.05
2022-11-13T03:21:16.516Z,9.10
2022-11-13T03:23:46.067Z,9.15
2022-11-13T03:26:15.896Z,9.22
2022-11-13T03:28:44.266Z,9.04
2022-11-13T03:31:12.136Z,9.30
2022-11-13T03:33:41.396Z,9.26
2022-11-13T03:36:09.639Z,9.37
2022-11-13T03:38:37.651Z,9.24
2022-11-13T03:41:05.686Z,9.38
2022-11-13T03:43:33.574Z,9.40
2022-11-13T03:46:01.401Z,9.41
2022-11-13T03:48:29.771Z,9.40
2022-11-13T03:50:59.294Z,9.43
2022-11-13T03:53:27.153Z,9.43
2022-11-13T03:55:55.244Z,9.43
2022-11-13T03:58:23.108Z,9.42
2022-11-13T04:00:51.226Z,9.34
2022-11-13T04:03:19.084Z,9.40
2022-11-13T04:05:49.808Z,9.40
2022-11-13T04:08:19.806Z,9.23
2022-11-13T04:10:47.700Z,9.39
2022-11-13T04:13:15.643Z,9.45
2022-11-13T04:15:43.539Z,9.47
2022-11-13T04:18:11.348Z,9.47
2022-11-13T04:20:39.246Z,9.49
2022-11-13T04:23:11.446Z,9.50
2022-11-13T04:25:40.688Z,9.53
2022-11-13T04:28:08.535Z,9.53
2022-11-13T04:30:36.354Z,9.53
2022-11-13T04:33:04.492Z,9.52
2022-11-13T04:35:32.326Z,9.45
2022-11-13T04:38:00.143Z,9.60
2022-11-13T04:40:28.029Z,9.61
2022-11-13T04:42:56.240Z,9.63
2022-11-13T04:45:27.446Z,9.62
2022-11-13T04:47:55.434Z,9.61
2022-11-13T04:50:23.761Z,9.63
2022-11-13T04:52:51.633Z,9.58
2022-11-13T04:55:19.710Z,9.59
2022-11-13T04:57:47.668Z,9.59
2022-11-13T05:00:17.800Z,9.61
2022-11-13T05:02:45.714Z,9.62
2022-11-13T05:05:13.549Z,9.65
2022-11-13T05:07:42.583Z,9.64
2022-11-13T05:10:11.146Z,9.64
2022-11-13T05:12:38.932Z,9.46
2022-11-13T05:15:08.068Z,9.66
2022-11-13T05:17:37.259Z,9.68
2022-11-13T05:20:05.679Z,9.69
2022-11-13T05:22:33.530Z,9.70
2022-11-13T05:25:01.354Z,9.72
2022-11-13T05:27:29.162Z,9.74
2022-11-13T05:29:57.036Z,9.69
2022-11-13T05:32:24.889Z,9.76
2022-11-13T05:34:54.083Z,9.76
2022-11-13T05:37:21.886Z,9.76
2022-11-13T05:39:49.694Z,9.70
2022-11-13T05:42:17.516Z,9.77
2022-11-13T05:44:45.337Z,9.76
2022-11-13T05:47:13.156Z,9.71
2022-11-13T05:49:40.971Z,9.78
2022-11-13T05:52:10.156Z,9.73
2022-11-13T05:54:38.012Z,9.82
2022-11-13T05:57:05.862Z,9.81
2022-11-13T05:59:33.679Z,9.84
2022-11-13T06:02:02.383Z,9.86
2022-11-13T06:04:30.279Z,9.42
2022-11-13T06:06:58.161Z,9.87
2022-11-13T06:09:27.367Z,9.85
2022-11-13T06:11:55.291Z,9.85
2022-11-13T06:14:23.198Z,9.87
2022-11-13T06:16:51.047Z,9.87
2022-11-13T06:19:18.899Z,9.90
2022-11-13T06:21:46.744Z,9.91
2022-11-13T06:24:14.845Z,9.92
2022-11-13T06:26:44.076Z,9.93
2022-11-13T06:29:14.085Z,9.69
2022-11-13T06:31:41.958Z,9.96
2022-11-13T06:34:09.769Z,9.96
2022-11-13T06:36:38.581Z,9.96
2022-11-13T06:39:08.224Z,9.95
2022-11-13T06:41:36.213Z,9.95
2022-11-13T06:44:06.223Z,9.98
2022-11-13T06:46:34.470Z,9.99
2022-11-13T06:49:02.274Z,9.98
2022-11-13T06:51:32.346Z,9.67
2022-11-13T06:54:00.155Z,9.99
2022-11-13T06:56:28.352Z,10.01
2022-11-13T06:58:56.939Z,10.03
2022-11-13T07:01:27.790Z,10.05
2022-11-13T07:03:55.797Z,9.84
2022-11-13T07:06:25.612Z,9.85
2022-11-13T07:08:53.963Z,10.02
2022-11-13T07:11:23.609Z,10.04
2022-11-13T07:13:52.138Z,10.03
2022-11-13T07:16:20.259Z,10.07
2022-11-13T07:18:53.014Z,10.09
2022-11-13T07:21:21.845Z,10.12
2022-11-13T07:23:50.438Z,10.14
2022-11-13T07:26:18.658Z,10.17
2022-11-13T07:28:47.028Z,9.90
2022-11-13T07:31:16.343Z,10.19
2022-11-13T07:33:44.475Z,10.21
2022-11-13T07:36:13.652Z,10.26
2022-11-13T07:38:41.455Z,10.30
2022-11-13T07:41:09.422Z,10.32
2022-11-13T07:43:37.346Z,10.35
2022-11-13T07:46:05.163Z,10.38
2022-11-13T07:48:33.208Z,10.31
2022-11-13T07:51:02.578Z,10.40
2022-11-13T07:53:32.046Z,10.41
2022-11-13T07:56:02.814Z,10.42
2022-11-13T07:58:31.283Z,10.43
2022-11-13T08:01:03.220Z,10.43
2022-11-13T08:03:31.240Z,10.38
2022-11-13T08:06:02.472Z,10.40
2022-11-13T08:08:32.147Z,10.49
2022-11-13T08:11:00.153Z,10.50
2022-11-13T08:13:28.070Z,10.50
2022-11-13T08:15:56.011Z,10.48
2022-11-13T08:18:23.908Z,10.51
2022-11-13T08:20:51.701Z,10.51
2022-11-13T08:23:19.631Z,10.48
2022-11-13T08:25:48.919Z,10.45
2022-11-13T08:28:16.846Z,10.50
2022-11-13T08:30:45.945Z,10.27
2022-11-13T08:33:13.893Z,10.48
2022-11-13T08:35:41.684Z,10.50
2022-11-13T08:38:10.374Z,10.59
2022-11-13T08:40:38.347Z,10.62
2022-11-13T08:43:07.524Z,10.65
2022-11-13T08:45:35.434Z,10.61
2022-11-13T08:48:04.187Z,10.40
2022-11-13T08:50:34.260Z,10.53
2022-11-13T08:53:02.914Z,10.45
2022-11-13T08:55:30.698Z,10.55
2022-11-13T08:58:00.328Z,10.60
2022-11-13T09:00:31.263Z,10.60
2022-11-13T09:03:00.587Z,10.58
2022-11-13T09:05:29.009Z,10.40
2022-11-13T09:07:58.804Z,10.44
2022-11-13T09:10:27.479Z,10.56
2022-11-13T09:12:59.190Z,10.15
2022-11-13T09:15:27.282Z,10.66
2022-11-13T09:17:58.887Z,10.63
2022-11-13T09:20:27.074Z,10.60
2022-11-13T09:22:59.720Z,10.64
2022-11-13T09:25:32.828Z,10.43
2022-11-13T09:28:05.530Z,10.68
2022-11-13T09:30:34.902Z,10.75
2022-11-13T09:33:04.135Z,10.75
2022-11-13T09:35:35.824Z,10.80
2022-11-13T09:38:10.406Z,10.81
2022-11-13T09:40:44.084Z,10.77
2022-11-13T09:43:31.077Z,10.79
2022-11-13T09:46:11.984Z,10.75
2022-11-13T09:48:45.366Z,10.75
2022-11-13T09:51:17.300Z,10.84
2022-11-13T09:53:45.583Z,10.44
2022-11-13T09:56:26.247Z,10.82
2022-11-13T09:59:02.608Z,10.73
2022-11-13T10:01:41.557Z,10.69
2022-11-13T10:04:15.633Z,10.83
2022-11-13T10:07:02.010Z,10.85
2022-11-13T10:09:38.479Z,10.78
2022-11-13T10:12:09.604Z,10.71
2022-11-13T10:14:44.031Z,10.83
2022-11-13T10:17:18.959Z,11.00
2022-11-13T10:19:55.260Z,11.02
2022-11-13T10:22:33.464Z,11.10
2022-11-13T10:25:13.667Z,11.09
2022-11-13T10:27:41.997Z,11.08
2022-11-13T10:31:05.019Z,11.11
2022-11-13T10:33:33.439Z,11.17
2022-11-13T10:36:14.143Z,11.37
2022-11-13T10:38:44.954Z,11.32
2022-11-13T10:41:15.222Z,11.54
2022-11-13T10:43:53.090Z,11.72
2022-11-13T10:46:22.396Z,11.77
2022-11-13T10:48:50.202Z,11.25
2022-11-13T10:51:25.361Z,11.56
2022-11-13T10:53:54.310Z,11.22
2022-11-13T10:56:27.575Z,11.58
2022-11-13T10:59:03.544Z,11.78
2022-11-13T11:01:31.711Z,11.47
2022-11-13T11:03:59.579Z,11.68
2022-11-13T11:07:12.580Z,11.52
2022-11-13T11:09:27.372Z,11.55
2022-11-13T11:12:22.081Z,11.63
2022-11-13T11:15:19.382Z,11.72
2022-11-13T11:17:51.900Z,11.51
2022-11-13T11:20:25.346Z,11.37
2022-11-13T11:23:02.236Z,11.29
2022-11-13T11:25:39.138Z,11.65
2022-11-13T11:28:15.514Z,11.47
2022-11-13T11:30:51.642Z,11.49
2022-11-13T11:33:24.254Z,11.47
2022-11-13T11:35:57.886Z,11.39
2022-11-13T11:38:32.371Z,11.36
2022-11-13T11:41:10.703Z,11.48
2022-11-13T11:43:45.415Z,11.50
2022-11-13T11:46:14.235Z,11.42
2022-11-13T11:48:42.371Z,11.49
2022-11-13T11:51:21.966Z,11.47
2022-11-13T11:53:59.429Z,11.50
2022-11-13T11:56:33.576Z,11.63
2022-11-13T11:59:25.432Z,11.65
2022-11-13T12:02:26.914Z,11.77
2022-11-13T12:05:06.969Z,11.81
2022-11-13T12:07:42.946Z,11.80
2022-11-13T12:10:26.597Z,11.85
2022-11-13T12:13:15.606Z,11.79
2022-11-13T12:15:50.256Z,11.72
2022-11-13T12:18:29.301Z,11.76
2022-11-13T12:21:06.320Z,11.79
2022-11-13T12:23:53.721Z,11.85
2022-11-13T12:26:28.741Z,11.87
2022-11-13T12:29:05.185Z,11.81
2022-11-13T12:31:47.991Z,11.83
2022-11-13T12:34:22.575Z,11.94
2022-11-13T12:36:51.217Z,12.02
2022-11-13T12:39:33.579Z,12.08
2022-11-13T12:42:12.614Z,12.00
2022-11-13T12:44:51.415Z,11.99
2022-11-13T12:47:19.475Z,12.01
2022-11-13T12:49:47.379Z,12.03
2022-11-13T12:52:20.595Z,11.90
2022-11-13T12:54:48.518Z,11.83
2022-11-13T12:57:29.934Z,11.96
2022-11-13T13:00:00.522Z,11.94
2022-11-13T13:02:40.106Z,11.99
2022-11-13T13:05:20.754Z,11.97
2022-11-13T13:08:09.479Z,12.15
2022-11-13T13:10:49.987Z,12.17
2022-11-13T13:13:30.170Z,12.23
2022-11-13T13:16:00.220Z,12.27
2022-11-13T13:18:31.577Z,12.19
2022-11-13T13:21:04.335Z,12.13
2022-11-13T13:23:34.991Z,12.11
2022-11-13T13:26:14.239Z,12.11
2022-11-13T13:28:47.274Z,12.06
2022-11-13T13:31:26.633Z,12.10
2022-11-13T13:34:05.512Z,12.16
2022-11-13T13:36:41.479Z,12.23
2022-11-13T13:39:22.033Z,12.03
2022-11-13T13:42:12.869Z,12.22
2022-11-13T13:45:07.056Z,12.37
2022-11-13T13:47:38.989Z,12.24
2022-11-13T13:50:08.701Z,12.24
2022-11-13T13:52:37.955Z,12.22
2022-11-13T13:55:07.907Z,12.16
2022-11-13T13:57:42.075Z,12.05
2022-11-13T14:00:15.034Z,11.90
2022-11-13T14:02:47.636Z,11.90
2022-11-13T14:05:27.532Z,11.88
2022-11-13T14:07:55.763Z,11.93
2022-11-13T14:10:25.911Z,11.74
2022-11-13T14:12:53.701Z,11.83
2022-11-13T14:15:29.122Z,11.06
2022-11-13T14:18:07.837Z,11.65
2022-11-13T14:20:42.058Z,11.57
2022-11-13T14:23:13.741Z,11.57
2022-11-13T14:25:42.351Z,11.47
2022-11-13T14:28:17.006Z,11.41
2022-11-13T14:30:53.514Z,11.35
2022-11-13T14:33:25.408Z,11.20
2022-11-13T14:35:56.131Z,11.18
2022-11-13T14:38:25.974Z,11.08
2022-11-13T14:40:53.833Z,11.05
2022-11-13T14:43:26.068Z,10.97
2022-11-13T14:45:57.887Z,10.92
2022-11-13T14:48:27.855Z,10.87
2022-11-13T14:50:57.528Z,10.82
2022-11-13T14:53:31.383Z,10.49
2022-11-13T14:56:02.555Z,10.72
2022-11-13T14:58:32.122Z,10.67
2022-11-13T15:01:14.237Z,10.61
2022-11-13T15:03:43.780Z,10.53
2022-11-13T15:06:15.900Z,10.45
2022-11-13T15:08:44.793Z,10.40
2022-11-13T15:11:14.693Z,10.33
2022-11-13T15:13:43.078Z,10.13
2022-11-13T15:16:16.719Z,10.21
2022-11-13T15:18:49.427Z,10.12
2022-11-13T15:21:17.332Z,10.06
2022-11-13T15:23:45.243Z,9.88
2022-11-13T15:26:13.554Z,9.91
2022-11-13T15:28:41.763Z,9.93
2022-11-13T15:31:20.018Z,9.91
2022-11-13T15:33:48.724Z,9.74
2022-11-13T15:36:16.757Z,9.84
2022-11-13T15:38:44.749Z,9.83
2022-11-13T15:41:14.807Z,9.41
2022-11-13T15:43:46.170Z,9.79
2022-11-13T15:46:17.908Z,9.77
2022-11-13T15:48:46.076Z,9.77
2022-11-13T15:51:18.837Z,9.74
2022-11-13T15:53:49.312Z,9.68
2022-11-13T15:56:17.583Z,9.62
2022-11-13T15:58:45.350Z,9.58
2022-11-13T16:01:16.435Z,9.47
2022-11-13T16:03:44.345Z,9.47
2022-11-13T16:06:13.848Z,9.45
2022-11-13T16:08:42.759Z,9.32
2022-11-13T16:11:15.412Z,9.38
2022-11-13T16:13:43.668Z,9.31
2022-11-13T16:16:18.068Z,8.91
2022-11-13T16:18:46.075Z,9.14
2022-11-13T16:21:15.034Z,8.95
2022-11-13T16:23:43.112Z,8.93
2022-11-13T16:26:15.776Z,8.48
2022-11-13T16:31:32.805Z,8.73
2022-11-13T16:34:00.631Z,8.73
2022-11-13T16:36:28.778Z,8.68
2022-11-13T16:38:57.151Z,8.60
2022-11-13T16:41:24.982Z,8.55
2022-11-13T16:43:52.797Z,8.50
2022-11-13T16:46:27.192Z,8.46
2022-11-13T16:48:56.559Z,8.38
2022-11-13T16:51:24.598Z,8.33
2022-11-13T16:53:52.743Z,8.23
2022-11-13T16:56:28.067Z,8.27
2022-11-13T16:58:56.251Z,8.28
2022-11-13T17:01:24.971Z,8.24
2022-11-13T17:03:52.978Z,8.07
2022-11-13T17:06:27.999Z,8.08
2022-11-13T17:08:57.411Z,8.11
2022-11-13T17:11:26.367Z,8.12
2022-11-13T17:13:56.986Z,8.11
2022-11-13T17:16:26.404Z,8.05
2022-11-13T17:18:54.891Z,8.03
2022-11-13T17:21:26.551Z,8.04
2022-11-13T17:23:57.296Z,8.09
2022-11-13T17:26:25.855Z,7.98
2022-11-13T17:28:53.839Z,7.94
2022-11-13T17:31:22.410Z,7.92
2022-11-13T17:33:53.595Z,7.92
2022-11-13T17:36:21.550Z,7.87
2022-11-13T17:38:51.155Z,7.87
2022-11-13T17:41:19.583Z,7.76
2022-11-13T17:43:47.512Z,7.64
2022-11-13T17:46:17.169Z,7.57
2022-11-13T17:48:45.355Z,7.69
2022-11-13T17:51:14.913Z,7.68
2022-11-13T17:53:42.919Z,7.64
2022-11-13T17:56:13.437Z,7.62
2022-11-13T17:58:42.917Z,7.51
2022-11-13T18:01:14.233Z,7.57
2022-11-13T18:03:42.541Z,7.51
2022-11-13T18:06:13.509Z,7.49
2022-11-13T18:08:42.531Z,7.44
2022-11-13T18:11:15.452Z,7.42
2022-11-13T18:13:44.076Z,7.47
2022-11-13T18:16:15.973Z,7.47
2022-11-13T18:18:43.780Z,7.34
2022-11-13T18:21:22.355Z,7.32
2022-11-13T18:23:56.471Z,7.33
2022-11-13T18:26:25.990Z,7.32
2022-11-13T18:28:54.013Z,7.33
2022-11-13T18:31:23.306Z,7.36
2022-11-13T18:33:51.639Z,7.34
2022-11-13T18:36:19.667Z,7.34
2022-11-13T18:38:47.704Z,7.36
2022-11-13T18:41:17.779Z,7.40
2022-11-13T18:43:48.223Z,7.36
2022-11-13T18:46:18.034Z,7.25
2022-11-13T18:48:47.198Z,7.24
2022-11-13T18:51:17.596Z,7.16
2022-11-13T18:53:48.347Z,7.17
2022-11-13T18:56:18.310Z,7.08
2022-11-13T18:58:49.090Z,7.19
2022-11-13T19:01:22.678Z,7.18
2022-11-13T19:04:16.281Z,7.19
2022-11-13T19:06:40.160Z,7.21
2022-11-13T19:09:11.199Z,7.22
2022-11-13T19:11:39.003Z,7.22
2022-11-13T19:14:09.292Z,7.21
2022-11-13T19:16:39.199Z,7.07
2022-11-13T19:19:08.843Z,7.05
2022-11-13T19:21:37.459Z,7.06
2022-11-13T19:24:05.988Z,7.15
2022-11-13T19:26:34.292Z,7.16
2022-11-13T19:29:02.215Z,7.16
2022-11-13T19:31:31.461Z,7.06
2022-11-13T19:34:01.026Z,7.02
2022-11-13T19:36:30.453Z,7.03
2022-11-13T19:38:58.805Z,6.99
2022-11-13T19:41:28.655Z,6.98
2022-11-13T19:43:59.305Z,6.96
2022-11-13T19:46:27.581Z,6.88
2022-11-13T19:48:56.802Z,6.90
2022-11-13T19:51:27.841Z,6.87
2022-11-13T19:53:57.527Z,6.84
2022-11-13T19:56:28.484Z,6.79
2022-11-13T19:58:57.391Z,6.83
2022-11-13T20:01:26.914Z,6.80
2022-11-13T20:03:57.067Z,6.74
2022-11-13T20:06:25.310Z,6.68
2022-11-13T20:08:53.195Z,6.65
2022-11-13T20:11:21.113Z,6.60
2022-11-13T20:13:48.997Z,6.58
2022-11-13T20:16:20.875Z,6.62
2022-11-13T20:18:48.715Z,6.57
2022-11-13T20:21:24.462Z,6.47
2022-11-13T20:23:53.430Z,6.34
2022-11-13T20:26:21.232Z,6.32
2022-11-13T20:28:49.108Z,6.34
2022-11-13T20:31:19.610Z,6.39
2022-11-13T20:33:47.890Z,6.39
2022-11-13T20:36:18.448Z,6.17
2022-11-13T20:38:50.532Z,6.29
2022-11-13T20:41:20.609Z,5.83
2022-11-13T20:43:48.553Z,6.30
2022-11-13T20:46:18.012Z,6.27
2022-11-13T20:48:46.686Z,5.99
2022-11-13T20:51:16.409Z,6.23
2022-11-13T20:53:45.602Z,6.23
2022-11-13T20:56:14.251Z,5.87
2022-11-13T20:58:42.135Z,5.90
2022-11-13T21:01:11.926Z,5.89
2022-11-13T21:03:41.689Z,5.63
2022-11-13T21:06:10.554Z,5.77
2022-11-13T21:08:38.790Z,5.75
2022-11-13T21:11:09.479Z,5.69
2022-11-13T21:13:37.264Z,5.51
2022-11-13T21:16:09.239Z,5.65
2022-11-13T21:18:37.269Z,5.48
2022-11-13T21:21:08.032Z,5.10
2022-11-13T21:23:36.001Z,5.35
2022-11-13T21:26:05.749Z,5.35
2022-11-13T21:28:35.624Z,5.23
2022-11-13T21:31:04.312Z,5.28
2022-11-13T21:33:32.407Z,5.09
2022-11-13T21:36:05.793Z,5.20
2022-11-13T21:38:33.735Z,5.20
2022-11-13T21:41:19.547Z,5.17
2022-11-13T21:43:49.100Z,4.99
2022-11-13T21:46:17.258Z,5.12
2022-11-13T21:48:45.767Z,5.24
2022-11-13T21:51:14.011Z,5.35
2022-11-13T21:53:42.849Z,5.36
2022-11-13T21:56:15.388Z,5.36
2022-11-13T21:58:44.208Z,5.36
2022-11-13T22:01:14.514Z,5.34
2022-11-13T22:03:42.850Z,5.36
2022-11-13T22:06:22.059Z,5.44
2022-11-13T22:08:56.251Z,5.33
2022-11-13T22:11:24.350Z,5.41
2022-11-13T22:13:52.546Z,5.07
2022-11-13T22:16:22.303Z,5.33
2022-11-13T22:18:54.819Z,5.39
2022-11-13T22:21:24.084Z,5.34
2022-11-13T22:23:52.211Z,5.35
2022-11-13T22:26:21.113Z,5.25
2022-11-13T22:28:49.649Z,5.23
2022-11-13T22:31:19.263Z,5.34
2022-11-13T22:33:52.483Z,5.37
2022-11-13T22:36:24.258Z,5.43
2022-11-13T22:38:52.316Z,5.42
2022-11-13T22:41:23.724Z,5.33
2022-11-13T22:43:53.630Z,5.34
2022-11-13T22:46:23.491Z,5.19
2022-11-13T22:48:54.353Z,5.10
2022-11-13T22:51:23.981Z,4.81
2022-11-13T22:53:53.685Z,5.03
2022-11-13T22:56:22.989Z,5.03
2022-11-13T22:58:51.309Z,4.92
2022-11-13T23:01:21.641Z,4.76
2022-11-13T23:03:51.856Z,4.82
2022-11-13T23:06:22.991Z,4.66
2022-11-13T23:08:51.194Z,4.69
2022-11-13T23:11:20.856Z,4.58
2022-11-13T23:13:50.305Z,4.34
2022-11-13T23:16:19.371Z,4.64
2022-11-13T23:18:47.859Z,4.59
2022-11-13T23:21:16.742Z,4.27
2022-11-13T23:23:46.047Z,4.41
2022-11-13T23:26:15.585Z,4.35
2022-11-13T23:28:43.623Z,4.29
2022-11-13T23:31:11.781Z,4.34
2022-11-13T23:33:40.610Z,4.28
2022-11-13T23:36:09.554Z,4.06
2022-11-13T23:38:37.486Z,4.03
2022-11-13T23:41:07.074Z,4.03
2022-11-13T23:44:06.950Z,4.03
2022-11-13T23:46:22.768Z,4.04
2022-11-13T23:48:50.608Z,4.01
2022-11-13T23:51:18.434Z,3.83
2022-11-13T23:53:46.318Z,3.65
2022-11-13T23:56:15.516Z,3.55
2022-11-13T23:58:43.722Z,3.33
